createdAt,value
2023-01-11T00:01:34.630Z,7.77
2023-01-11T00:06:36.349Z,15.27
2023-01-11T00:11:38.356Z,7.70
2023-01-11T00:16:40.162Z,5.93
2023-01-11T00:21:41.865Z,6.63
2023-01-11T00:26:43.585Z,7.77
2023-01-11T00:31:45.316Z,7.47
2023-01-11T00:36:47.043Z,5.37
2023-01-11T00:42:07.019Z,6.40
2023-01-11T00:47:34.074Z,4.80
2023-01-11T00:52:35.794Z,3.90
2023-01-11T00:57:37.502Z,5.17
2023-01-11T01:02:39.581Z,4.20
2023-01-11T01:07:42.271Z,3.50
2023-01-11T01:13:03.758Z,6.83
2023-01-11T01:18:05.626Z,8.43
2023-01-11T01:23:07.441Z,3.77
2023-01-11T01:28:09.180Z,6.13
2023-01-11T01:33:10.898Z,6.43
2023-01-11T01:38:12.625Z,5.03
2023-01-11T01:43:17.875Z,7.70
2023-01-11T01:48:25.389Z,6.90
2023-01-11T01:53:38.039Z,3.47
2023-01-11T01:58:50.507Z,4.10
2023-01-11T02:03:53.647Z,7.73
2023-01-11T02:09:17.060Z,3.30
2023-01-11T02:14:21.084Z,9.70
2023-01-11T02:20:07.124Z,6.23
2023-01-11T02:25:47.101Z,7.07
2023-01-11T02:31:30.839Z,3.70
2023-01-11T02:37:00.039Z,5.90
2023-01-11T02:42:56.026Z,7.47
2023-01-11T02:48:13.583Z,5.97
2023-01-11T02:53:44.626Z,6.00
2023-01-11T02:58:51.756Z,4.53
2023-01-11T03:03:54.980Z,2.93
2023-01-11T03:09:14.973Z,10.03
2023-01-11T03:14:46.900Z,3.90
2023-01-11T03:19:56.489Z,3.77
2023-01-11T03:25:06.515Z,3.67
2023-01-11T03:30:25.000Z,3.73
2023-01-11T03:35:54.656Z,5.30
2023-01-11T03:41:23.594Z,2.40
2023-01-11T03:46:36.680Z,3.53
2023-01-11T03:51:50.715Z,3.33
2023-01-11T03:57:26.065Z,1.57
2023-01-11T04:02:39.137Z,4.27
2023-01-11T04:07:41.309Z,3.50
2023-01-11T04:12:45.708Z,6.40
2023-01-11T04:17:47.427Z,5.93
2023-01-11T04:22:49.184Z,2.70
2023-01-11T04:27:50.924Z,8.80
2023-01-11T04:32:52.675Z,3.47
2023-01-11T04:37:58.170Z,5.43
2023-01-11T04:43:02.233Z,4.47
2023-01-11T04:48:04.455Z,7.63
2023-01-11T04:53:06.185Z,2.37
2023-01-11T04:58:07.898Z,3.10
2023-01-11T05:03:09.605Z,2.40
2023-01-11T05:08:11.324Z,2.70
2023-01-11T05:13:13.054Z,3.47
2023-01-11T05:18:14.807Z,3.50
2023-01-11T05:23:16.546Z,2.03
2023-01-11T05:28:18.275Z,2.23
2023-01-11T05:33:20.295Z,5.63
2023-01-11T05:38:22.016Z,5.50
2023-01-11T05:43:24.579Z,2.90
2023-01-11T05:48:26.957Z,2.90
2023-01-11T05:53:28.700Z,2.40
2023-01-11T05:58:30.458Z,4.47
2023-01-11T06:03:32.487Z,3.73
2023-01-11T06:08:34.711Z,1.90
2023-01-11T06:13:36.654Z,3.73
2023-01-11T06:18:49.465Z,3.43
2023-01-11T06:23:51.805Z,2.47
2023-01-11T06:28:53.529Z,1.60
2023-01-11T06:33:55.235Z,1.27
2023-01-11T06:38:57.015Z,3.40
2023-01-11T06:43:58.811Z,1.80
2023-01-11T06:49:03.183Z,2.00
2023-01-11T06:54:04.915Z,4.77
2023-01-11T06:59:06.746Z,5.37
2023-01-11T07:04:08.528Z,3.20
2023-01-11T07:09:10.287Z,4.17
2023-01-11T07:14:14.976Z,5.73
2023-01-11T07:19:18.134Z,2.60
2023-01-11T07:24:20.422Z,5.33
2023-01-11T07:29:22.397Z,3.77
2023-01-11T07:34:24.731Z,3.73
2023-01-11T07:39:38.579Z,8.17
2023-01-11T07:44:44.348Z,2.30
2023-01-11T07:49:46.359Z,2.73
2023-01-11T07:54:48.085Z,3.27
2023-01-11T07:59:49.788Z,7.43
2023-01-11T08:04:51.523Z,1.37
2023-01-11T08:09:53.257Z,2.73
2023-01-11T08:14:55.013Z,3.30
2023-01-11T08:19:56.809Z,7.57
2023-01-11T08:24:58.520Z,3.23
2023-01-11T08:30:00.406Z,5.37
2023-01-11T08:35:02.302Z,5.90
2023-01-11T08:40:05.442Z,2.67
2023-01-11T08:45:08.304Z,1.23
2023-01-11T08:50:11.258Z,4.83
2023-01-11T08:55:12.966Z,3.80
2023-01-11T09:00:15.833Z,2.77
2023-01-11T09:05:18.472Z,2.13
2023-01-11T09:10:20.448Z,2.17
2023-01-11T09:15:24.100Z,2.33
2023-01-11T09:20:25.886Z,5.50
2023-01-11T09:25:27.646Z,6.57
2023-01-11T09:30:29.453Z,2.47
2023-01-11T09:35:31.395Z,3.57
2023-01-11T09:41:08.392Z,4.67
2023-01-11T09:46:14.030Z,3.50
2023-01-11T09:51:16.574Z,3.13
2023-01-11T09:56:38.674Z,2.10
2023-01-11T10:01:53.575Z,2.77
2023-01-11T10:07:37.933Z,9.43
2023-01-11T10:24:37.149Z,2.40
2023-01-11T10:29:55.638Z,6.27
2023-01-11T10:35:29.281Z,2.37
2023-01-11T10:41:14.587Z,5.43
2023-01-11T10:46:27.086Z,14.13
2023-01-11T10:51:47.431Z,3.90
2023-01-11T10:57:18.375Z,2.60
2023-01-11T11:03:15.430Z,2.30
2023-01-11T11:08:35.198Z,2.47
2023-01-11T11:14:20.437Z,3.90
2023-01-11T11:19:32.113Z,2.83
2023-01-11T11:24:54.505Z,4.63
2023-01-11T11:29:57.380Z,4.33
2023-01-11T11:34:59.376Z,2.30
2023-01-11T11:40:02.005Z,2.73
2023-01-11T11:45:09.585Z,3.50
2023-01-11T11:50:37.113Z,2.90
2023-01-11T11:55:41.945Z,3.33
2023-01-11T12:00:51.840Z,4.50
2023-01-11T12:06:05.027Z,2.90
2023-01-11T12:11:15.027Z,5.43
2023-01-11T12:16:23.018Z,2.67
2023-01-11T12:21:30.116Z,4.00
2023-01-11T12:26:45.074Z,3.60
2023-01-11T12:32:11.724Z,3.13
2023-01-11T12:37:55.924Z,1.47
2023-01-11T12:44:13.123Z,2.70
2023-01-11T12:49:59.990Z,3.53
2023-01-11T12:55:15.814Z,14.17
2023-01-11T13:01:28.476Z,8.60
2023-01-11T13:06:53.700Z,1.90
2023-01-11T13:12:27.156Z,2.73
2023-01-11T13:17:51.211Z,1.87
2023-01-11T13:23:04.302Z,2.40
2023-01-11T13:28:39.093Z,4.97
2023-01-11T13:33:52.698Z,3.83
2023-01-11T13:39:51.745Z,4.30
2023-01-11T13:45:33.737Z,1.80
2023-01-11T13:51:27.094Z,1.90
2023-01-11T13:56:38.202Z,1.20
2023-01-11T14:02:14.037Z,1.73
2023-01-11T14:07:46.423Z,2.50
2023-01-11T14:13:03.140Z,1.77
2023-01-11T14:18:36.893Z,2.80
2023-01-11T14:23:46.570Z,1.47
2023-01-11T14:29:44.442Z,1.70
2023-01-11T14:35:27.878Z,12.30
2023-01-11T14:40:54.068Z,1.63
2023-01-11T14:46:40.241Z,2.23
2023-01-11T14:51:44.901Z,2.57
2023-01-11T14:56:51.928Z,2.20
2023-01-11T15:02:05.842Z,1.90
2023-01-11T15:07:28.717Z,4.00
2023-01-11T15:12:38.771Z,2.20
2023-01-11T15:18:00.846Z,2.50
2023-01-11T15:23:06.340Z,1.30
2023-01-11T15:28:51.547Z,2.30
2023-01-11T15:33:55.309Z,1.53
2023-01-11T15:39:06.318Z,1.37
2023-01-11T15:44:36.706Z,1.20
2023-01-11T15:50:28.809Z,2.33
2023-01-11T15:56:23.631Z,1.60
2023-01-11T16:01:30.302Z,1.70
2023-01-11T16:06:55.665Z,1.40
2023-01-11T16:12:56.553Z,1.47
2023-01-11T16:18:16.581Z,6.60
2023-01-11T16:23:21.407Z,2.30
2023-01-11T16:28:25.458Z,1.70
2023-01-11T16:33:35.910Z,4.13
2023-01-11T16:39:12.273Z,2.70
2023-01-11T16:44:55.369Z,3.37
2023-01-11T16:50:28.379Z,5.37
2023-01-11T16:55:40.545Z,3.90
2023-01-11T17:00:42.407Z,3.77
2023-01-11T17:06:02.053Z,1.73
2023-01-11T17:11:42.331Z,2.47
2023-01-11T17:16:54.978Z,3.53
2023-01-11T17:22:16.030Z,3.20
2023-01-11T17:27:28.016Z,3.13
2023-01-11T17:32:41.169Z,4.00
2023-01-11T17:37:51.050Z,3.63
2023-01-11T17:43:17.717Z,3.97
2023-01-11T17:48:20.429Z,3.00
2023-01-11T17:53:26.771Z,3.53
2023-01-11T17:58:38.199Z,5.23
2023-01-11T18:03:58.500Z,5.73
2023-01-11T18:09:05.917Z,4.20
2023-01-11T18:14:30.897Z,4.53
2023-01-11T18:19:40.632Z,4.20
2023-01-11T18:24:53.741Z,6.13
2023-01-11T18:30:01.226Z,8.43
2023-01-11T18:35:03.718Z,4.60
2023-01-11T18:40:10.767Z,4.97
2023-01-11T18:45:14.600Z,5.13
2023-01-11T18:50:19.469Z,4.63
2023-01-11T18:55:21.448Z,7.00
2023-01-11T19:00:23.921Z,7.00
2023-01-11T19:05:25.648Z,5.43
2023-01-11T19:10:27.608Z,7.77
2023-01-11T19:15:29.519Z,6.93
2023-01-11T19:25:38.068Z,6.77
2023-01-11T19:30:40.494Z,6.13
2023-01-11T19:35:43.151Z,12.23
2023-01-11T19:40:50.394Z,6.10
2023-01-11T19:45:59.953Z,7.10
2023-01-11T19:51:10.806Z,5.93
2023-01-11T19:56:15.297Z,9.50
2023-01-11T20:01:17.281Z,6.37
2023-01-11T20:06:19.085Z,5.93
2023-01-11T20:11:20.869Z,7.40
2023-01-11T20:16:24.612Z,7.90
2023-01-11T20:21:31.550Z,5.23
2023-01-11T20:26:36.425Z,8.20
2023-01-11T20:31:38.988Z,4.73
2023-01-11T20:36:42.534Z,11.17
2023-01-11T20:41:47.346Z,11.10
2023-01-11T20:46:50.714Z,9.30
2023-01-11T20:51:52.570Z,10.93
2023-01-11T20:56:54.471Z,8.63
2023-01-11T21:01:56.296Z,6.80
2023-01-11T21:06:58.057Z,13.60
2023-01-11T21:11:59.921Z,9.13
2023-01-11T21:17:01.703Z,13.13
2023-01-11T21:22:03.430Z,9.40
2023-01-11T21:27:05.962Z,10.60
2023-01-11T21:32:07.776Z,10.53
2023-01-11T21:37:09.502Z,9.13
2023-01-11T21:42:11.325Z,13.30
2023-01-11T21:47:14.650Z,12.87
2023-01-11T21:52:16.399Z,10.77
2023-01-11T21:57:18.247Z,9.67
2023-01-11T22:02:19.971Z,15.23
2023-01-11T22:07:21.707Z,14.50
2023-01-11T22:12:23.503Z,10.43
2023-01-11T22:17:25.221Z,20.33
2023-01-11T22:22:28.164Z,12.90
2023-01-11T22:27:29.868Z,9.77
2023-01-11T22:32:31.607Z,16.67
2023-01-11T22:37:33.343Z,11.83
2023-01-11T22:42:35.045Z,24.67
2023-01-11T22:47:36.778Z,17.17
2023-01-11T22:52:38.518Z,9.63
2023-01-11T22:57:40.347Z,11.17
2023-01-11T23:02:42.219Z,16.77
2023-01-11T23:07:47.926Z,10.90
2023-01-11T23:13:11.787Z,15.33
2023-01-11T23:18:13.852Z,15.43
2023-01-11T23:23:15.668Z,12.00
2023-01-11T23:28:17.433Z,12.07
2023-01-11T23:33:19.176Z,8.37
2023-01-11T23:38:20.895Z,13.93
2023-01-11T23:43:22.552Z,12.87
2023-01-11T23:48:26.897Z,21.77
2023-01-11T23:53:28.778Z,13.53
2023-01-11T23:58:31.163Z,6.57
